sensor_id;sensor_type;location;lat;lon;timestamp;temperature;humidity
6186;DHT22;3126;52.738;8.316;2023-05-07T00:01:03;10.60;99.90
6186;DHT22;3126;52.738;8.316;2023-05-07T00:06:03;10.50;99.90
6186;DHT22;3126;52.738;8.316;2023-05-07T00:26:07;10.50;99.90
6186;DHT22;3126;52.738;8.316;2023-05-07T00:31:07;10.40;99.90
6186;DHT22;3126;52.738;8.316;2023-05-07T00:36:08;10.40;99.90
6186;DHT22;3126;52.738;8.316;2023-05-07T00:41:08;10.40;99.90
6186;DHT22;3126;52.738;8.316;2023-05-07T00:56:13;10.30;99.90
6186;DHT22;3126;52.738;8.316;2023-05-07T01:01:14;10.30;99.90
6186;DHT22;3126;52.738;8.316;2023-05-07T01:06:17;10.30;99.90
6186;DHT22;3126;52.738;8.316;2023-05-07T01:11:18;10.20;99.90
6186;DHT22;3126;52.738;8.316;2023-05-07T01:16:20;10.20;99.90
6186;DHT22;3126;52.738;8.316;2023-05-07T01:21:26;10.20;99.90
6186;DHT22;3126;52.738;8.316;2023-05-07T01:26:27;10.10;99.90
6186;DHT22;3126;52.738;8.316;2023-05-07T01:31:27;10.10;99.90
6186;DHT22;3126;52.738;8.316;2023-05-07T01:36:29;10.10;99.90
6186;DHT22;3126;52.738;8.316;2023-05-07T01:41:31;10.10;99.90
6186;DHT22;3126;52.738;8.316;2023-05-07T01:46:32;10.10;99.90
6186;DHT22;3126;52.738;8.316;2023-05-07T01:51:33;10.00;99.90
6186;DHT22;3126;52.738;8.316;2023-05-07T02:06:36;10.00;99.90
6186;DHT22;3126;52.738;8.316;2023-05-07T02:11:37;10.00;99.90
6186;DHT22;3126;52.738;8.316;2023-05-07T02:16:37;10.00;99.90
6186;DHT22;3126;52.738;8.316;2023-05-07T02:21:38;9.90;99.90
6186;DHT22;3126;52.738;8.316;2023-05-07T02:46:44;9.90;99.90
6186;DHT22;3126;52.738;8.316;2023-05-07T02:51:45;9.90;99.90
6186;DHT22;3126;52.738;8.316;2023-05-07T02:56:45;9.80;99.90
6186;DHT22;3126;52.738;8.316;2023-05-07T03:01:46;9.80;99.90
6186;DHT22;3126;52.738;8.316;2023-05-07T03:06:47;9.80;99.90
6186;DHT22;3126;52.738;8.316;2023-05-07T03:11:48;9.70;99.90
6186;DHT22;3126;52.738;8.316;2023-05-07T03:16:49;9.70;99.90
6186;DHT22;3126;52.738;8.316;2023-05-07T03:21:50;9.70;99.90
6186;DHT22;3126;52.738;8.316;2023-05-07T03:26:51;9.70;99.90
6186;DHT22;3126;52.738;8.316;2023-05-07T03:31:51;9.60;99.90
6186;DHT22;3126;52.738;8.316;2023-05-07T03:36:52;9.50;99.90
6186;DHT22;3126;52.738;8.316;2023-05-07T03:41:52;9.60;99.90
6186;DHT22;3126;52.738;8.316;2023-05-07T03:46:53;9.50;99.90
6186;DHT22;3126;52.738;8.316;2023-05-07T03:51:55;9.50;99.90
6186;DHT22;3126;52.738;8.316;2023-05-07T03:56:56;9.50;99.90
6186;DHT22;3126;52.738;8.316;2023-05-07T04:01:57;9.40;99.90
6186;DHT22;3126;52.738;8.316;2023-05-07T04:06:58;9.40;99.90
6186;DHT22;3126;52.738;8.316;2023-05-07T04:12:03;9.40;99.90
6186;DHT22;3126;52.738;8.316;2023-05-07T04:17:04;9.40;99.90
6186;DHT22;3126;52.738;8.316;2023-05-07T04:22:06;9.40;99.90
6186;DHT22;3126;52.738;8.316;2023-05-07T04:27:07;9.50;99.90
6186;DHT22;3126;52.738;8.316;2023-05-07T04:32:08;9.50;99.90
6186;DHT22;3126;52.738;8.316;2023-05-07T04:37:09;9.50;99.90
6186;DHT22;3126;52.738;8.316;2023-05-07T04:42:14;9.50;99.90
6186;DHT22;3126;52.738;8.316;2023-05-07T04:47:15;9.50;99.90
6186;DHT22;3126;52.738;8.316;2023-05-07T04:52:16;9.50;99.90
6186;DHT22;3126;52.738;8.316;2023-05-07T04:57:17;9.60;99.90
6186;DHT22;3126;52.738;8.316;2023-05-07T05:02:17;9.60;99.90
6186;DHT22;3126;52.738;8.316;2023-05-07T05:07:18;9.60;99.90
6186;DHT22;3126;52.738;8.316;2023-05-07T05:12:19;9.60;99.90
6186;DHT22;3126;52.738;8.316;2023-05-07T05:17:19;9.60;99.90
6186;DHT22;3126;52.738;8.316;2023-05-07T05:22:20;9.70;99.90
6186;DHT22;3126;52.738;8.316;2023-05-07T05:27:22;9.80;99.90
6186;DHT22;3126;52.738;8.316;2023-05-07T05:32:22;9.80;99.90
6186;DHT22;3126;52.738;8.316;2023-05-07T05:37:23;9.80;99.90
6186;DHT22;3126;52.738;8.316;2023-05-07T05:42:23;9.80;99.90
6186;DHT22;3126;52.738;8.316;2023-05-07T05:47:24;9.90;99.90
6186;DHT22;3126;52.738;8.316;2023-05-07T05:52:25;9.90;99.90
6186;DHT22;3126;52.738;8.316;2023-05-07T05:57:26;9.90;99.90
6186;DHT22;3126;52.738;8.316;2023-05-07T06:02:26;10.00;99.90
6186;DHT22;3126;52.738;8.316;2023-05-07T06:07:27;10.00;99.90
6186;DHT22;3126;52.738;8.316;2023-05-07T06:12:27;10.10;99.90
6186;DHT22;3126;52.738;8.316;2023-05-07T06:17:28;10.10;99.90
6186;DHT22;3126;52.738;8.316;2023-05-07T06:27:29;10.20;99.90
6186;DHT22;3126;52.738;8.316;2023-05-07T06:32:30;10.30;99.90
6186;DHT22;3126;52.738;8.316;2023-05-07T06:37:30;10.30;99.90
6186;DHT22;3126;52.738;8.316;2023-05-07T06:42:31;10.40;99.90
6186;DHT22;3126;52.738;8.316;2023-05-07T06:47:31;10.40;99.90
6186;DHT22;3126;52.738;8.316;2023-05-07T06:52:32;10.40;99.90
6186;DHT22;3126;52.738;8.316;2023-05-07T06:57:32;10.40;99.90
6186;DHT22;3126;52.738;8.316;2023-05-07T07:02:33;10.40;99.90
6186;DHT22;3126;52.738;8.316;2023-05-07T07:07:33;10.50;99.90
6186;DHT22;3126;52.738;8.316;2023-05-07T07:12:34;10.50;99.90
6186;DHT22;3126;52.738;8.316;2023-05-07T07:17:34;10.60;99.90
6186;DHT22;3126;52.738;8.316;2023-05-07T07:22:35;10.60;99.90
6186;DHT22;3126;52.738;8.316;2023-05-07T07:27:37;10.70;99.90
6186;DHT22;3126;52.738;8.316;2023-05-07T07:32:38;10.70;99.90
6186;DHT22;3126;52.738;8.316;2023-05-07T07:37:38;10.70;99.90
6186;DHT22;3126;52.738;8.316;2023-05-07T07:42:39;10.80;99.90
6186;DHT22;3126;52.738;8.316;2023-05-07T07:47:40;10.90;99.90
6186;DHT22;3126;52.738;8.316;2023-05-07T07:52:40;10.90;99.90
6186;DHT22;3126;52.738;8.316;2023-05-07T07:57:41;10.90;99.90
6186;DHT22;3126;52.738;8.316;2023-05-07T08:02:42;10.90;99.90
6186;DHT22;3126;52.738;8.316;2023-05-07T08:07:42;11.00;99.90
6186;DHT22;3126;52.738;8.316;2023-05-07T08:12:43;11.10;99.90
6186;DHT22;3126;52.738;8.316;2023-05-07T08:17:43;11.20;99.90
6186;DHT22;3126;52.738;8.316;2023-05-07T08:22:44;11.10;99.90
6186;DHT22;3126;52.738;8.316;2023-05-07T08:27:44;11.20;99.90
6186;DHT22;3126;52.738;8.316;2023-05-07T08:32:45;11.40;99.90
6186;DHT22;3126;52.738;8.316;2023-05-07T08:37:45;11.60;99.90
6186;DHT22;3126;52.738;8.316;2023-05-07T08:42:49;11.80;99.90
6186;DHT22;3126;52.738;8.316;2023-05-07T08:47:52;12.10;99.70
6186;DHT22;3126;52.738;8.316;2023-05-07T08:52:56;12.10;98.40
6186;DHT22;3126;52.738;8.316;2023-05-07T08:57:57;12.00;98.90
6186;DHT22;3126;52.738;8.316;2023-05-07T09:02:57;12.10;99.00
6186;DHT22;3126;52.738;8.316;2023-05-07T09:08:01;12.20;97.80
6186;DHT22;3126;52.738;8.316;2023-05-07T09:13:03;12.20;96.80
6186;DHT22;3126;52.738;8.316;2023-05-07T09:18:04;12.30;96.50
6186;DHT22;3126;52.738;8.316;2023-05-07T09:23:07;12.50;95.00
6186;DHT22;3126;52.738;8.316;2023-05-07T09:28:07;12.60;94.50
6186;DHT22;3126;52.738;8.316;2023-05-07T09:33:10;12.60;93.40
6186;DHT22;3126;52.738;8.316;2023-05-07T09:38:10;12.90;94.00
6186;DHT22;3126;52.738;8.316;2023-05-07T09:53:17;13.20;93.10
6186;DHT22;3126;52.738;8.316;2023-05-07T09:58:19;14.60;89.00
6186;DHT22;3126;52.738;8.316;2023-05-07T10:03:24;15.00;85.60
6186;DHT22;3126;52.738;8.316;2023-05-07T10:08:27;15.20;84.20
6186;DHT22;3126;52.738;8.316;2023-05-07T10:13:28;14.90;84.60
6186;DHT22;3126;52.738;8.316;2023-05-07T10:18:31;14.90;85.10
6186;DHT22;3126;52.738;8.316;2023-05-07T10:23:33;15.30;84.90
6186;DHT22;3126;52.738;8.316;2023-05-07T10:28:39;15.80;80.40
6186;DHT22;3126;52.738;8.316;2023-05-07T10:33:42;16.50;81.60
6186;DHT22;3126;52.738;8.316;2023-05-07T10:38:47;16.80;75.50
6186;DHT22;3126;52.738;8.316;2023-05-07T10:43:47;16.70;76.80
6186;DHT22;3126;52.738;8.316;2023-05-07T11:04:20;17.30;73.60
6186;DHT22;3126;52.738;8.316;2023-05-07T11:14:56;17.40;75.90
6186;DHT22;3126;52.738;8.316;2023-05-07T11:19:59;17.50;73.70
6186;DHT22;3126;52.738;8.316;2023-05-07T11:25:01;17.20;73.30
6186;DHT22;3126;52.738;8.316;2023-05-07T11:30:02;17.00;76.00
6186;DHT22;3126;52.738;8.316;2023-05-07T11:35:03;17.30;76.40
6186;DHT22;3126;52.738;8.316;2023-05-07T11:40:07;17.30;74.60
6186;DHT22;3126;52.738;8.316;2023-05-07T11:45:09;17.60;73.40
6186;DHT22;3126;52.738;8.316;2023-05-07T11:50:10;17.70;73.80
6186;DHT22;3126;52.738;8.316;2023-05-07T11:55:12;17.50;73.30
6186;DHT22;3126;52.738;8.316;2023-05-07T12:00:15;17.50;72.20
6186;DHT22;3126;52.738;8.316;2023-05-07T12:05:16;17.50;73.70
6186;DHT22;3126;52.738;8.316;2023-05-07T12:10:17;17.50;73.80
6186;DHT22;3126;52.738;8.316;2023-05-07T12:15:22;18.00;74.60
6186;DHT22;3126;52.738;8.316;2023-05-07T12:20:23;18.50;72.70
6186;DHT22;3126;52.738;8.316;2023-05-07T12:25:25;18.40;72.30
6186;DHT22;3126;52.738;8.316;2023-05-07T12:30:25;18.60;71.30
6186;DHT22;3126;52.738;8.316;2023-05-07T12:35:30;18.00;70.70
6186;DHT22;3126;52.738;8.316;2023-05-07T12:40:41;18.00;73.40
6186;DHT22;3126;52.738;8.316;2023-05-07T12:45:42;18.20;70.80
6186;DHT22;3126;52.738;8.316;2023-05-07T12:50:43;18.30;73.20
6186;DHT22;3126;52.738;8.316;2023-05-07T12:55:46;18.60;73.40
6186;DHT22;3126;52.738;8.316;2023-05-07T13:00:50;18.70;71.50
6186;DHT22;3126;52.738;8.316;2023-05-07T13:05:52;18.50;72.00
6186;DHT22;3126;52.738;8.316;2023-05-07T13:10:53;18.80;72.50
6186;DHT22;3126;52.738;8.316;2023-05-07T13:15:53;18.70;70.80
6186;DHT22;3126;52.738;8.316;2023-05-07T13:20:54;18.20;72.10
6186;DHT22;3126;52.738;8.316;2023-05-07T13:25:54;17.70;74.20
6186;DHT22;3126;52.738;8.316;2023-05-07T13:30:56;17.40;72.80
6186;DHT22;3126;52.738;8.316;2023-05-07T13:35:56;17.00;77.90
6186;DHT22;3126;52.738;8.316;2023-05-07T13:40:58;17.00;77.00
6186;DHT22;3126;52.738;8.316;2023-05-07T13:45:58;17.00;77.50
6186;DHT22;3126;52.738;8.316;2023-05-07T13:50:59;16.90;78.20
6186;DHT22;3126;52.738;8.316;2023-05-07T13:56:00;16.80;80.70
6186;DHT22;3126;52.738;8.316;2023-05-07T14:01:00;16.70;79.00
6186;DHT22;3126;52.738;8.316;2023-05-07T14:06:01;17.00;79.80
6186;DHT22;3126;52.738;8.316;2023-05-07T14:11:01;17.40;78.00
6186;DHT22;3126;52.738;8.316;2023-05-07T14:16:04;17.30;79.60
6186;DHT22;3126;52.738;8.316;2023-05-07T14:21:05;17.10;76.00
6186;DHT22;3126;52.738;8.316;2023-05-07T14:26:06;16.70;78.20
6186;DHT22;3126;52.738;8.316;2023-05-07T14:31:07;16.70;78.90
6186;DHT22;3126;52.738;8.316;2023-05-07T14:36:08;16.80;79.60
6186;DHT22;3126;52.738;8.316;2023-05-07T14:41:09;17.50;76.30
6186;DHT22;3126;52.738;8.316;2023-05-07T14:46:09;17.60;74.90
6186;DHT22;3126;52.738;8.316;2023-05-07T14:51:10;17.90;74.00
6186;DHT22;3126;52.738;8.316;2023-05-07T14:56:11;17.90;73.20
6186;DHT22;3126;52.738;8.316;2023-05-07T15:01:11;18.10;75.40
6186;DHT22;3126;52.738;8.316;2023-05-07T15:06:12;18.60;73.80
6186;DHT22;3126;52.738;8.316;2023-05-07T15:11:12;18.90;72.90
6186;DHT22;3126;52.738;8.316;2023-05-07T15:16:13;18.80;71.30
6186;DHT22;3126;52.738;8.316;2023-05-07T15:21:13;18.70;71.40
6186;DHT22;3126;52.738;8.316;2023-05-07T15:26:14;18.30;71.50
6186;DHT22;3126;52.738;8.316;2023-05-07T15:31:15;18.00;72.80
6186;DHT22;3126;52.738;8.316;2023-05-07T15:36:16;17.70;73.60
6186;DHT22;3126;52.738;8.316;2023-05-07T15:41:17;17.40;74.30
6186;DHT22;3126;52.738;8.316;2023-05-07T15:46:19;17.30;76.80
6186;DHT22;3126;52.738;8.316;2023-05-07T15:51:20;17.40;74.40
6186;DHT22;3126;52.738;8.316;2023-05-07T15:56:22;17.40;74.10
6186;DHT22;3126;52.738;8.316;2023-05-07T16:01:22;17.50;75.80
6186;DHT22;3126;52.738;8.316;2023-05-07T16:06:23;17.40;72.70
6186;DHT22;3126;52.738;8.316;2023-05-07T16:11:23;17.10;73.80
6186;DHT22;3126;52.738;8.316;2023-05-07T16:16:24;16.70;74.90
6186;DHT22;3126;52.738;8.316;2023-05-07T16:21:29;16.50;77.30
6186;DHT22;3126;52.738;8.316;2023-05-07T16:26:30;16.30;78.40
6186;DHT22;3126;52.738;8.316;2023-05-07T16:31:31;16.10;78.10
6186;DHT22;3126;52.738;8.316;2023-05-07T16:36:31;16.00;78.40
6186;DHT22;3126;52.738;8.316;2023-05-07T16:41:32;15.90;79.10
6186;DHT22;3126;52.738;8.316;2023-05-07T16:46:34;15.90;80.20
6186;DHT22;3126;52.738;8.316;2023-05-07T16:51:35;15.90;80.50
6186;DHT22;3126;52.738;8.316;2023-05-07T16:56:36;16.00;80.30
6186;DHT22;3126;52.738;8.316;2023-05-07T17:01:36;15.90;81.40
6186;DHT22;3126;52.738;8.316;2023-05-07T17:06:37;15.90;80.70
6186;DHT22;3126;52.738;8.316;2023-05-07T17:11:37;15.80;80.60
6186;DHT22;3126;52.738;8.316;2023-05-07T17:16:38;15.80;80.90
6186;DHT22;3126;52.738;8.316;2023-05-07T17:21:39;15.70;80.60
6186;DHT22;3126;52.738;8.316;2023-05-07T17:26:39;15.60;80.80
6186;DHT22;3126;52.738;8.316;2023-05-07T17:31:42;15.40;81.40
6186;DHT22;3126;52.738;8.316;2023-05-07T17:36:42;15.20;83.00
6186;DHT22;3126;52.738;8.316;2023-05-07T17:41:43;15.00;83.10
6186;DHT22;3126;52.738;8.316;2023-05-07T17:46:43;14.80;83.90
6186;DHT22;3126;52.738;8.316;2023-05-07T17:51:44;14.60;83.90
6186;DHT22;3126;52.738;8.316;2023-05-07T17:56:44;14.50;83.20
6186;DHT22;3126;52.738;8.316;2023-05-07T18:01:45;14.30;84.90
6186;DHT22;3126;52.738;8.316;2023-05-07T18:06:46;14.20;85.10
6186;DHT22;3126;52.738;8.316;2023-05-07T18:11:46;14.10;86.10
6186;DHT22;3126;52.738;8.316;2023-05-07T18:16:47;14.00;86.30
6186;DHT22;3126;52.738;8.316;2023-05-07T18:21:47;13.90;87.80
6186;DHT22;3126;52.738;8.316;2023-05-07T18:26:49;13.70;88.60
6186;DHT22;3126;52.738;8.316;2023-05-07T18:31:50;13.60;88.10
6186;DHT22;3126;52.738;8.316;2023-05-07T18:36:50;13.50;88.40
6186;DHT22;3126;52.738;8.316;2023-05-07T18:41:51;13.40;88.80
6186;DHT22;3126;52.738;8.316;2023-05-07T18:46:52;13.30;89.70
6186;DHT22;3126;52.738;8.316;2023-05-07T18:51:53;13.30;90.30
6186;DHT22;3126;52.738;8.316;2023-05-07T18:56:53;13.20;90.10
6186;DHT22;3126;52.738;8.316;2023-05-07T19:01:54;13.20;91.00
6186;DHT22;3126;52.738;8.316;2023-05-07T19:06:55;13.10;91.10
6186;DHT22;3126;52.738;8.316;2023-05-07T19:11:57;13.00;91.00
6186;DHT22;3126;52.738;8.316;2023-05-07T19:16:58;12.90;90.90
6186;DHT22;3126;52.738;8.316;2023-05-07T19:21:58;12.90;91.60
6186;DHT22;3126;52.738;8.316;2023-05-07T19:26:59;12.80;92.50
6186;DHT22;3126;52.738;8.316;2023-05-07T19:32:00;12.70;93.00
6186;DHT22;3126;52.738;8.316;2023-05-07T19:37:01;12.60;93.70
6186;DHT22;3126;52.738;8.316;2023-05-07T19:42:01;12.50;93.70
6186;DHT22;3126;52.738;8.316;2023-05-07T19:47:02;12.40;93.80
6186;DHT22;3126;52.738;8.316;2023-05-07T19:52:04;12.30;94.00
6186;DHT22;3126;52.738;8.316;2023-05-07T19:57:05;12.20;93.60
6186;DHT22;3126;52.738;8.316;2023-05-07T20:02:06;12.20;93.10
6186;DHT22;3126;52.738;8.316;2023-05-07T20:12:07;12.00;92.70
6186;DHT22;3126;52.738;8.316;2023-05-07T20:17:11;11.90;92.80
6186;DHT22;3126;52.738;8.316;2023-05-07T20:22:13;11.80;92.90
6186;DHT22;3126;52.738;8.316;2023-05-07T20:27:13;11.80;92.90
6186;DHT22;3126;52.738;8.316;2023-05-07T20:32:16;11.70;92.00
6186;DHT22;3126;52.738;8.316;2023-05-07T20:37:17;11.60;92.40
6186;DHT22;3126;52.738;8.316;2023-05-07T20:42:18;11.60;92.20
6186;DHT22;3126;52.738;8.316;2023-05-07T20:47:18;11.50;92.50
6186;DHT22;3126;52.738;8.316;2023-05-07T20:52:19;11.50;92.80
6186;DHT22;3126;52.738;8.316;2023-05-07T20:57:20;11.40;93.40
6186;DHT22;3126;52.738;8.316;2023-05-07T21:02:21;11.30;93.10
6186;DHT22;3126;52.738;8.316;2023-05-07T21:07:21;11.30;93.80
6186;DHT22;3126;52.738;8.316;2023-05-07T21:12:22;11.30;94.10
6186;DHT22;3126;52.738;8.316;2023-05-07T21:17:22;11.20;93.80
6186;DHT22;3126;52.738;8.316;2023-05-07T21:22:24;11.10;94.00
6186;DHT22;3126;52.738;8.316;2023-05-07T21:27:27;11.10;94.00
6186;DHT22;3126;52.738;8.316;2023-05-07T21:32:28;11.00;94.30
6186;DHT22;3126;52.738;8.316;2023-05-07T21:37:29;10.90;94.80
6186;DHT22;3126;52.738;8.316;2023-05-07T21:42:29;10.90;95.70
6186;DHT22;3126;52.738;8.316;2023-05-07T21:47:30;10.80;96.10
6186;DHT22;3126;52.738;8.316;2023-05-07T21:52:31;10.80;96.40
6186;DHT22;3126;52.738;8.316;2023-05-07T21:57:31;10.70;97.10
6186;DHT22;3126;52.738;8.316;2023-05-07T22:02:32;10.60;97.40
6186;DHT22;3126;52.738;8.316;2023-05-07T22:07:33;10.50;98.00
6186;DHT22;3126;52.738;8.316;2023-05-07T22:12:33;10.50;98.30
6186;DHT22;3126;52.738;8.316;2023-05-07T22:17:34;10.40;98.20
6186;DHT22;3126;52.738;8.316;2023-05-07T22:22:51;10.40;98.40
6186;DHT22;3126;52.738;8.316;2023-05-07T22:27:52;10.40;98.60
6186;DHT22;3126;52.738;8.316;2023-05-07T22:32:52;10.30;98.40
6186;DHT22;3126;52.738;8.316;2023-05-07T22:37:53;10.30;98.90
6186;DHT22;3126;52.738;8.316;2023-05-07T22:42:53;10.30;98.70
6186;DHT22;3126;52.738;8.316;2023-05-07T22:47:54;10.30;98.60
6186;DHT22;3126;52.738;8.316;2023-05-07T22:52:55;10.20;98.90
6186;DHT22;3126;52.738;8.316;2023-05-07T22:57:55;10.20;99.50
6186;DHT22;3126;52.738;8.316;2023-05-07T23:02:56;10.20;99.70
6186;DHT22;3126;52.738;8.316;2023-05-07T23:07:57;10.20;99.90
6186;DHT22;3126;52.738;8.316;2023-05-07T23:12:57;10.10;99.90
6186;DHT22;3126;52.738;8.316;2023-05-07T23:17:58;10.10;99.90
6186;DHT22;3126;52.738;8.316;2023-05-07T23:22:59;10.00;99.90
6186;DHT22;3126;52.738;8.316;2023-05-07T23:27:59;10.00;99.90
6186;DHT22;3126;52.738;8.316;2023-05-07T23:33:00;10.00;99.90
6186;DHT22;3126;52.738;8.316;2023-05-07T23:38:01;9.90;99.90
6186;DHT22;3126;52.738;8.316;2023-05-07T23:43:01;9.90;99.90
6186;DHT22;3126;52.738;8.316;2023-05-07T23:48:02;9.90;99.90
6186;DHT22;3126;52.738;8.316;2023-05-07T23:53:03;9.90;99.90
6186;DHT22;3126;52.738;8.316;2023-05-07T23:58:04;9.90;99.90
